Time;durP1;ratioP1;P1;durP2;ratioP2;P2;SDS_P1;SDS_P2;PMS_P1;PMS_P2;Temp;Humidity;BMP_temperature;BMP_pressure;BME280_temperature;BME280_humidity;BME280_pressure;Samples;Min_cycle;Max_cycle;Signal;HPM_P1;HPM_P2
2022/09/27 00:00:14;;;;;;;1.50;1.20;;;;;;;;;;4980847;28;20034;-83
2022/09/27 00:02:39;;;;;;;1.70;1.10;;;;;;;;;;4964428;28;20058;-83
2022/09/27 00:05:06;;;;;;;2.40;1.10;;;;;;;;;;4996824;28;20129;-83
2022/09/27 00:07:31;;;;;;;0.98;0.88;;;;;;;;;;4997823;28;20049;-84
2022/09/27 00:09:58;;;;;;;1.95;1.00;;;;;;;;;;4997416;28;20030;-83
2022/09/27 00:12:23;;;;;;;1.17;1.00;;;;;;;;;;4996508;28;20042;-83
2022/09/27 00:14:49;;;;;;;1.75;1.02;;;;;;;;;;4997571;28;20038;-84
2022/09/27 00:17:14;;;;;;;1.83;1.00;;;;;;;;;;4997990;28;20088;-83
2022/09/27 00:19:40;;;;;;;1.40;1.10;;;;;;;;;;4998093;28;20026;-83
2022/09/27 00:22:05;;;;;;;1.13;0.93;;;;;;;;;;4997399;28;20109;-83
2022/09/27 00:24:31;;;;;;;1.10;0.82;;;;;;;;;;4963731;28;20483;-83
2022/09/27 00:26:57;;;;;;;4.13;0.80;;;;;;;;;;4997905;28;20038;-84
2022/09/27 00:29:22;;;;;;;1.70;1.27;;;;;;;;;;4980215;28;20399;-83
2022/09/27 00:31:48;;;;;;;1.60;0.98;;;;;;;;;;4980228;28;20116;-83
2022/09/27 00:34:20;;;;;;;1.20;1.00;;;;;;;;;;4979113;28;20053;-84
2022/09/27 00:36:45;;;;;;;2.47;1.52;;;;;;;;;;4997523;28;20022;-83
2022/09/27 00:39:11;;;;;;;1.27;1.00;;;;;;;;;;4979746;28;20029;-83
2022/09/27 00:41:37;;;;;;;3.03;0.98;;;;;;;;;;4979844;28;20030;-83
2022/09/27 00:44:24;;;;;;;1.10;0.98;;;;;;;;;;4979392;28;20402;-83
2022/09/27 00:47:03;;;;;;;1.08;0.80;;;;;;;;;;4960062;28;20038;-82
2022/09/27 00:49:50;;;;;;;0.98;0.80;;;;;;;;;;4979973;28;20497;-82
2022/09/27 00:52:38;;;;;;;1.23;0.80;;;;;;;;;;4979547;28;20030;-83
2022/09/27 00:55:18;;;;;;;1.23;0.90;;;;;;;;;;4978725;28;20033;-84
2022/09/27 00:57:46;;;;;;;1.00;0.80;;;;;;;;;;4979486;28;20034;-84
2022/09/27 01:00:12;;;;;;;2.28;0.80;;;;;;;;;;4979555;28;20096;-83
2022/09/27 01:02:46;;;;;;;0.90;0.90;;;;;;;;;;4997747;28;20133;-84
2022/09/27 01:05:14;;;;;;;2.05;0.90;;;;;;;;;;4978445;28;20029;-82
2022/09/27 01:07:40;;;;;;;0.93;0.73;;;;;;;;;;4979973;28;20022;-83
2022/09/27 01:10:07;;;;;;;1.27;0.90;;;;;;;;;;4979592;28;20110;-83
2022/09/27 01:12:50;;;;;;;1.05;0.80;;;;;;;;;;4995669;28;20071;-83
2022/09/27 01:15:18;;;;;;;1.13;0.90;;;;;;;;;;4978633;28;20491;-83
2022/09/27 01:17:56;;;;;;;1.23;0.93;;;;;;;;;;4979362;28;20030;-83
2022/09/27 01:20:48;;;;;;;1.52;0.95;;;;;;;;;;4979426;28;20032;-83
2022/09/27 01:23:44;;;;;;;1.25;0.85;;;;;;;;;;4959166;28;20050;-83
2022/09/27 01:26:37;;;;;;;3.85;1.00;;;;;;;;;;4977698;28;20053;-83
2022/09/27 01:29:28;;;;;;;0.80;0.70;;;;;;;;;;4979013;28;20085;-84
2022/09/27 01:32:17;;;;;;;1.42;0.90;;;;;;;;;;4962484;28;20128;-85
2022/09/27 01:34:49;;;;;;;1.67;1.10;;;;;;;;;;4977587;28;20598;-84
2022/09/27 01:37:52;;;;;;;1.17;0.90;;;;;;;;;;4979023;28;20049;-84
2022/09/27 01:40:32;;;;;;;0.80;0.80;;;;;;;;;;4979115;28;20030;-84
2022/09/27 01:43:33;;;;;;;1.23;0.95;;;;;;;;;;4995436;28;20494;-84
2022/09/27 01:46:04;;;;;;;1.20;0.90;;;;;;;;;;4978710;28;20364;-83
2022/09/27 01:48:55;;;;;;;1.60;1.13;;;;;;;;;;4997048;28;20586;-84
2022/09/27 01:51:34;;;;;;;1.70;1.08;;;;;;;;;;4979401;28;20030;-83
2022/09/27 01:54:02;;;;;;;2.25;0.90;;;;;;;;;;4995725;28;20475;-83
2022/09/27 01:56:53;;;;;;;1.55;0.93;;;;;;;;;;4996952;28;20076;-83
2022/09/27 01:59:32;;;;;;;1.98;0.80;;;;;;;;;;4979606;28;20379;-84
2022/09/27 02:02:21;;;;;;;1.52;1.00;;;;;;;;;;4996464;28;20096;-83
2022/09/27 02:05:09;;;;;;;2.67;0.90;;;;;;;;;;4980689;28;20073;-83
2022/09/27 02:07:50;;;;;;;1.08;0.85;;;;;;;;;;4978775;28;20033;-83
2022/09/27 02:10:24;;;;;;;1.65;0.90;;;;;;;;;;4978725;28;20057;-83
2022/09/27 02:13:10;;;;;;;1.50;0.82;;;;;;;;;;4977105;28;20552;-83
2022/09/27 02:15:53;;;;;;;1.33;0.85;;;;;;;;;;4978046;28;20030;-84
2022/09/27 02:19:10;;;;;;;2.97;1.00;;;;;;;;;;4978160;28;20093;-83
2022/09/27 02:21:47;;;;;;;2.85;1.00;;;;;;;;;;4970333;28;20038;-84
2022/09/27 02:24:23;;;;;;;0.98;0.80;;;;;;;;;;4978421;28;20038;-84
2022/09/27 02:26:59;;;;;;;0.80;0.80;;;;;;;;;;4963208;28;20057;-83
2022/09/27 02:29:36;;;;;;;1.55;0.90;;;;;;;;;;4978888;28;20038;-84
2022/09/27 02:32:02;;;;;;;1.35;0.90;;;;;;;;;;4979455;28;20041;-83
2022/09/27 02:34:32;;;;;;;2.53;0.80;;;;;;;;;;4981912;28;20038;-83
2022/09/27 02:36:59;;;;;;;1.10;1.00;;;;;;;;;;4981902;28;20034;-83
2022/09/27 02:39:26;;;;;;;2.05;0.95;;;;;;;;;;4981638;28;20439;-84
2022/09/27 02:42:04;;;;;;;1.30;0.90;;;;;;;;;;4967459;28;20026;-83
2022/09/27 02:44:30;;;;;;;1.00;0.90;;;;;;;;;;4981381;28;20042;-82
2022/09/27 02:47:23;;;;;;;1.20;1.00;;;;;;;;;;4982036;28;20037;-83
2022/09/27 02:50:07;;;;;;;1.33;1.00;;;;;;;;;;4982005;28;20030;-83
2022/09/27 02:53:35;;;;;;;2.45;1.00;;;;;;;;;;4978402;28;20273;-83
2022/09/27 02:56:55;;;;;;;1.30;1.00;;;;;;;;;;4973336;28;20065;-82
2022/09/27 03:00:08;;;;;;;1.50;0.90;;;;;;;;;;4999175;28;20069;-82
2022/09/27 03:02:47;;;;;;;1.42;0.98;;;;;;;;;;4981760;28;20136;-82
2022/09/27 03:05:39;;;;;;;1.83;1.17;;;;;;;;;;4998958;28;20041;-82
2022/09/27 03:08:06;;;;;;;1.00;0.90;;;;;;;;;;4981108;28;20034;-85
2022/09/27 03:10:31;;;;;;;2.45;1.10;;;;;;;;;;4982094;28;20026;-84
2022/09/27 03:12:57;;;;;;;3.03;1.10;;;;;;;;;;4979508;28;20025;-84
2022/09/27 03:15:23;;;;;;;2.85;1.00;;;;;;;;;;4998441;28;20061;-84
2022/09/27 03:18:01;;;;;;;1.85;1.15;;;;;;;;;;4998872;28;20038;-84
2022/09/27 03:20:42;;;;;;;3.97;1.17;;;;;;;;;;4999352;28;20042;-83
2022/09/27 03:23:10;;;;;;;1.30;1.00;;;;;;;;;;4981231;28;20030;-85
2022/09/27 03:25:35;;;;;;;3.22;1.10;;;;;;;;;;4980454;28;20153;-85
2022/09/27 03:28:01;;;;;;;3.55;1.13;;;;;;;;;;4998479;28;20383;-84
2022/09/27 03:30:27;;;;;;;1.20;1.08;;;;;;;;;;4980702;28;20073;-83
2022/09/27 03:32:52;;;;;;;1.52;1.17;;;;;;;;;;4981098;28;20549;-83
2022/09/27 03:35:44;;;;;;;3.15;1.30;;;;;;;;;;4980428;28;20034;-83
2022/09/27 03:38:10;;;;;;;9.05;1.05;;;;;;;;;;4981527;28;20144;-84
2022/09/27 03:40:36;;;;;;;1.48;0.90;;;;;;;;;;4981266;28;20030;-83
2022/09/27 03:43:04;;;;;;;2.00;1.10;;;;;;;;;;4980867;28;20037;-83
2022/09/27 03:45:31;;;;;;;1.33;1.00;;;;;;;;;;4980004;28;20026;-83
2022/09/27 03:47:59;;;;;;;1.30;1.00;;;;;;;;;;4981237;28;20030;-84
2022/09/27 03:50:25;;;;;;;1.25;1.05;;;;;;;;;;4981178;28;20444;-84
2022/09/27 03:52:52;;;;;;;2.65;1.20;;;;;;;;;;4998843;28;20026;-84
2022/09/27 03:55:18;;;;;;;3.05;1.20;;;;;;;;;;4979601;28;20022;-83
2022/09/27 03:57:45;;;;;;;1.60;1.20;;;;;;;;;;4998439;28;20038;-83
2022/09/27 04:00:12;;;;;;;2.58;1.35;;;;;;;;;;4980557;28;20034;-84
2022/09/27 04:02:37;;;;;;;2.72;1.20;;;;;;;;;;4998337;28;20038;-84
2022/09/27 04:05:29;;;;;;;2.38;1.45;;;;;;;;;;4995491;28;20045;-84
2022/09/27 04:08:04;;;;;;;2.10;1.50;;;;;;;;;;4980842;28;20030;-84
2022/09/27 04:10:31;;;;;;;2.60;1.50;;;;;;;;;;4980910;28;20084;-83
2022/09/27 04:12:57;;;;;;;2.65;1.30;;;;;;;;;;4979237;28;20030;-84
2022/09/27 04:15:25;;;;;;;6.43;1.40;;;;;;;;;;4964364;28;20038;-84
2022/09/27 04:17:51;;;;;;;2.45;1.30;;;;;;;;;;5002440;28;20083;-85
2022/09/27 04:20:28;;;;;;;1.77;1.30;;;;;;;;;;5017416;28;20551;-84
2022/09/27 04:22:55;;;;;;;4.05;1.67;;;;;;;;;;5000023;28;20026;-84
2022/09/27 04:25:21;;;;;;;4.50;3.10;;;;;;;;;;4999286;28;20029;-83
2022/09/27 04:27:50;;;;;;;2.95;1.88;;;;;;;;;;5000280;28;20036;-84
2022/09/27 04:30:16;;;;;;;2.80;1.63;;;;;;;;;;5000243;28;20040;-83
2022/09/27 04:33:01;;;;;;;2.13;1.60;;;;;;;;;;4999785;28;20478;-84
2022/09/27 04:38:38;;;;;;;2.53;1.38;;;;;;;;;;4998954;28;20032;-84
2022/09/27 04:41:06;;;;;;;2.55;1.20;;;;;;;;;;4998953;28;20025;-83
2022/09/27 04:43:33;;;;;;;1.90;1.17;;;;;;;;;;4999485;28;20041;-84
2022/09/27 04:45:59;;;;;;;1.95;1.20;;;;;;;;;;4998920;28;20379;-83
2022/09/27 04:48:25;;;;;;;1.83;1.30;;;;;;;;;;4999457;28;20564;-83
2022/09/27 04:50:58;;;;;;;2.35;1.20;;;;;;;;;;4983561;28;20446;-83
2022/09/27 04:53:24;;;;;;;2.60;1.00;;;;;;;;;;4999168;28;20029;-84
2022/09/27 04:55:52;;;;;;;2.17;1.20;;;;;;;;;;4997968;28;20030;-83
2022/09/27 04:58:18;;;;;;;2.50;1.20;;;;;;;;;;4998721;28;20030;-84
2022/09/27 05:00:44;;;;;;;1.92;1.20;;;;;;;;;;4998618;28;20029;-82
2022/09/27 05:03:32;;;;;;;1.60;1.00;;;;;;;;;;5015063;28;20038;-84
2022/09/27 05:06:08;;;;;;;2.22;1.00;;;;;;;;;;4998045;28;20026;-84
2022/09/27 05:08:34;;;;;;;0.85;0.73;;;;;;;;;;4998487;28;20037;-82
2022/09/27 05:11:32;;;;;;;1.20;0.80;;;;;;;;;;4994856;28;20033;-83
2022/09/27 05:14:19;;;;;;;1.70;0.80;;;;;;;;;;5014148;28;20037;-83
2022/09/27 05:17:03;;;;;;;1.30;0.90;;;;;;;;;;4998553;28;20727;-83
2022/09/27 05:20:02;;;;;;;3.65;0.90;;;;;;;;;;4983077;28;20057;-84
2022/09/27 05:22:42;;;;;;;2.88;1.60;;;;;;;;;;4985507;28;20083;-85
2022/09/27 05:25:09;;;;;;;0.70;0.70;;;;;;;;;;4998765;28;20030;-85
2022/09/27 05:27:34;;;;;;;0.93;0.80;;;;;;;;;;5000046;28;20506;-84
2022/09/27 05:30:00;;;;;;;0.80;0.70;;;;;;;;;;4999682;28;20355;-85
2022/09/27 05:32:41;;;;;;;0.70;0.57;;;;;;;;;;4999483;28;20022;-84
2022/09/27 05:35:25;;;;;;;2.03;0.70;;;;;;;;;;5016817;28;20553;-84
2022/09/27 05:37:59;;;;;;;0.73;0.60;;;;;;;;;;4999772;28;20033;-84
2022/09/27 05:40:28;;;;;;;0.82;0.63;;;;;;;;;;4984638;28;20096;-84
2022/09/27 05:42:55;;;;;;;0.50;0.50;;;;;;;;;;5017270;28;20030;-84
2022/09/27 05:45:22;;;;;;;0.60;0.60;;;;;;;;;;4999238;28;20041;-84
2022/09/27 05:47:55;;;;;;;0.63;0.50;;;;;;;;;;4999368;28;20022;-84
2022/09/27 05:50:23;;;;;;;0.50;0.50;;;;;;;;;;5000684;28;20029;-85
2022/09/27 05:52:48;;;;;;;1.95;0.63;;;;;;;;;;5000437;28;20022;-84
2022/09/27 05:55:15;;;;;;;0.70;0.50;;;;;;;;;;4984735;28;20097;-84
2022/09/27 05:57:41;;;;;;;0.98;0.60;;;;;;;;;;4998520;28;20034;-83
2022/09/27 06:00:09;;;;;;;0.77;0.52;;;;;;;;;;4994062;28;20097;-83
2022/09/27 06:02:37;;;;;;;0.75;0.60;;;;;;;;;;5015921;28;20068;-84
2022/09/27 06:05:22;;;;;;;2.30;1.60;;;;;;;;;;5015623;28;20077;-84
2022/09/27 06:08:09;;;;;;;4.68;2.08;;;;;;;;;;5018223;28;20522;-84
2022/09/27 06:10:40;;;;;;;1.98;1.52;;;;;;;;;;5002051;28;20097;-84
2022/09/27 06:13:13;;;;;;;1.30;1.00;;;;;;;;;;5001431;28;20026;-83
2022/09/27 06:15:42;;;;;;;0.85;0.77;;;;;;;;;;5001688;28;20032;-83
2022/09/27 06:18:10;;;;;;;0.90;0.80;;;;;;;;;;5002442;28;20026;-84
2022/09/27 06:20:39;;;;;;;2.88;1.02;;;;;;;;;;5001937;28;20030;-85
2022/09/27 06:23:19;;;;;;;2.50;0.70;;;;;;;;;;5001897;28;20040;-84
2022/09/27 06:25:47;;;;;;;0.95;0.50;;;;;;;;;;5000970;28;20033;-82
2022/09/27 06:28:20;;;;;;;0.50;0.50;;;;;;;;;;5001480;28;20029;-83
2022/09/27 06:30:49;;;;;;;1.80;0.50;;;;;;;;;;5001492;28;20076;-84
2022/09/27 06:33:22;;;;;;;0.70;0.60;;;;;;;;;;5001875;28;20032;-82
2022/09/27 06:35:52;;;;;;;0.95;0.80;;;;;;;;;;5000876;28;20116;-82
2022/09/27 06:38:20;;;;;;;1.17;0.60;;;;;;;;;;4998189;28;20092;-84
2022/09/27 06:40:51;;;;;;;;;;;;;;;;;;5006362;28;20410;-83
2022/09/27 06:43:26;;;;;;;0.70;0.50;;;;;;;;;;4979193;28;20358;-85
2022/09/27 06:46:10;;;;;;;0.40;0.40;;;;;;;;;;4979149;28;20057;-83
2022/09/27 06:48:41;;;;;;;1.30;0.60;;;;;;;;;;4998907;28;20034;-85
2022/09/27 06:51:14;;;;;;;0.88;0.60;;;;;;;;;;4981693;28;20029;-83
2022/09/27 06:53:41;;;;;;;0.50;0.50;;;;;;;;;;4981262;28;20483;-84
2022/09/27 06:56:07;;;;;;;0.40;0.40;;;;;;;;;;4981113;28;20034;-84
2022/09/27 07:01:40;;;;;;;0.60;0.50;;;;;;;;;;4999406;28;20126;-84
2022/09/27 07:04:24;;;;;;;1.05;0.40;;;;;;;;;;4998431;28;20069;-83
2022/09/27 07:06:59;;;;;;;0.55;0.40;;;;;;;;;;4979812;28;20045;-83
2022/09/27 07:09:29;;;;;;;0.95;0.40;;;;;;;;;;4994787;28;20030;-82
2022/09/27 07:11:55;;;;;;;2.00;0.47;;;;;;;;;;4978318;28;20038;-83
2022/09/27 07:14:20;;;;;;;0.75;0.40;;;;;;;;;;4979372;28;20025;-83
2022/09/27 07:16:47;;;;;;;0.40;0.40;;;;;;;;;;4979436;28;20034;-82
2022/09/27 07:19:14;;;;;;;0.70;0.40;;;;;;;;;;4978144;28;20368;-79
2022/09/27 07:21:40;;;;;;;0.55;0.20;;;;;;;;;;4979430;28;20486;-83
2022/09/27 07:24:05;;;;;;;0.50;0.38;;;;;;;;;;4978472;28;20037;-82
2022/09/27 07:26:32;;;;;;;1.65;0.50;;;;;;;;;;4979129;28;20033;-83
2022/09/27 07:28:58;;;;;;;1.10;0.30;;;;;;;;;;4979229;28;20034;-82
2022/09/27 07:31:28;;;;;;;1.02;0.30;;;;;;;;;;4978357;28;20087;-83
2022/09/27 07:33:54;;;;;;;0.85;0.40;;;;;;;;;;4978911;28;20117;-83
2022/09/27 07:36:19;;;;;;;0.38;0.30;;;;;;;;;;4977633;28;20061;-83
2022/09/27 07:38:46;;;;;;;1.00;0.30;;;;;;;;;;4979250;28;20031;-81
2022/09/27 07:41:13;;;;;;;0.60;0.43;;;;;;;;;;4978786;28;20030;-81
2022/09/27 07:43:45;;;;;;;0.65;0.43;;;;;;;;;;4978242;28;20105;-81
2022/09/27 07:46:12;;;;;;;0.50;0.30;;;;;;;;;;4977603;28;20750;-83
2022/09/27 07:48:56;;;;;;;0.63;0.50;;;;;;;;;;4995912;28;20049;-83
2022/09/27 07:51:42;;;;;;;0.40;0.40;;;;;;;;;;4962875;28;20642;-82
2022/09/27 07:54:28;;;;;;;0.45;0.30;;;;;;;;;;4955316;28;20042;-82
2022/09/27 07:57:14;;;;;;;1.15;0.60;;;;;;;;;;4996197;28;20172;-81
2022/09/27 07:59:48;;;;;;;0.75;0.40;;;;;;;;;;5010863;28;20027;-81
2022/09/27 08:02:17;;;;;;;0.50;0.50;;;;;;;;;;4979258;28;20489;-81
2022/09/27 08:04:45;;;;;;;0.70;0.52;;;;;;;;;;4978034;28;20019;-81
2022/09/27 08:07:13;;;;;;;1.00;0.52;;;;;;;;;;4978798;28;20042;-81
2022/09/27 08:09:39;;;;;;;0.40;0.40;;;;;;;;;;4978537;28;20038;-81
2022/09/27 08:12:05;;;;;;;0.45;0.40;;;;;;;;;;4977559;28;20033;-82
2022/09/27 08:14:31;;;;;;;2.85;0.40;;;;;;;;;;4977997;28;20030;-82
2022/09/27 08:16:57;;;;;;;1.05;0.60;;;;;;;;;;4977976;28;20033;-80
2022/09/27 08:19:26;;;;;;;1.00;0.45;;;;;;;;;;4995090;28;20070;-81
2022/09/27 08:22:01;;;;;;;0.60;0.50;;;;;;;;;;4995411;28;20065;-81
2022/09/27 08:24:33;;;;;;;0.77;0.40;;;;;;;;;;4977878;28;20394;-82
2022/09/27 08:27:16;;;;;;;1.95;0.57;;;;;;;;;;4958806;28;20056;-81
2022/09/27 08:29:51;;;;;;;0.55;0.47;;;;;;;;;;4958455;28;20042;-81
2022/09/27 08:32:18;;;;;;;1.35;0.50;;;;;;;;;;4976451;28;20077;-83
2022/09/27 08:34:43;;;;;;;0.45;0.43;;;;;;;;;;4958499;28;20113;-83
2022/09/27 08:37:09;;;;;;;0.50;0.40;;;;;;;;;;4958333;28;20118;-83
2022/09/27 08:39:37;;;;;;;0.20;0.20;;;;;;;;;;4973967;28;20057;-83
2022/09/27 08:42:55;;;;;;;0.43;0.30;;;;;;;;;;4978043;28;20038;-83
2022/09/27 08:45:33;;;;;;;2.15;0.50;;;;;;;;;;4973883;28;20034;-83
2022/09/27 08:48:03;;;;;;;2.60;0.50;;;;;;;;;;4994742;28;20030;-82
2022/09/27 08:50:36;;;;;;;0.57;0.40;;;;;;;;;;4978153;28;20026;-82
2022/09/27 08:53:32;;;;;;;2.20;0.63;;;;;;;;;;4993763;28;20067;-82
2022/09/27 08:56:02;;;;;;;0.40;0.40;;;;;;;;;;4977310;28;20092;-82
2022/09/27 08:58:36;;;;;;;;;;;;;;;;;;4978818;28;20125;-82
2022/09/27 09:01:13;;;;;;;1.52;0.40;;;;;;;;;;5010752;28;20277;-82
2022/09/27 09:03:51;;;;;;;0.93;0.38;;;;;;;;;;4978272;28;20031;-82
2022/09/27 09:06:27;;;;;;;0.20;0.20;;;;;;;;;;4977563;28;20026;-86
2022/09/27 09:09:13;;;;;;;0.57;0.20;;;;;;;;;;4977502;28;20368;-86
2022/09/27 09:15:12;;;;;;;0.60;0.38;;;;;;;;;;4995928;28;20101;-86
2022/09/27 09:18:21;;;;;;;0.20;0.20;;;;;;;;;;4982209;28;20026;-86
2022/09/27 09:21:27;;;;;;;1.02;0.25;;;;;;;;;;4977716;28;20038;-86
2022/09/27 09:24:11;;;;;;;0.55;0.20;;;;;;;;;;4980215;28;20137;-86
2022/09/27 09:26:40;;;;;;;0.38;0.25;;;;;;;;;;4993293;28;20475;-85
2022/09/27 09:29:18;;;;;;;0.30;0.10;;;;;;;;;;4978738;28;20383;-85
2022/09/27 09:31:56;;;;;;;0.40;0.13;;;;;;;;;;4978509;28;21379;-86
2022/09/27 09:34:27;;;;;;;1.08;0.30;;;;;;;;;;4978085;28;20023;-86
2022/09/27 09:37:00;;;;;;;0.60;0.40;;;;;;;;;;4992661;28;20033;-85
2022/09/27 09:39:33;;;;;;;0.20;0.10;;;;;;;;;;4978883;28;20125;-85
2022/09/27 09:42:05;;;;;;;1.05;0.10;;;;;;;;;;4986236;28;20049;-85
2022/09/27 09:44:43;;;;;;;0.68;0.20;;;;;;;;;;4982746;28;20042;-84
2022/09/27 09:47:40;;;;;;;0.35;0.20;;;;;;;;;;4988436;28;20038;-82
2022/09/27 09:50:22;;;;;;;0.55;0.50;;;;;;;;;;4980860;28;20486;-84
2022/09/27 09:52:55;;;;;;;0.60;0.10;;;;;;;;;;4976990;28;20027;-85
2022/09/27 09:55:28;;;;;;;0.60;0.20;;;;;;;;;;4977566;28;20006;-84
2022/09/27 09:57:54;;;;;;;;;;;;;;;;;;4979257;28;20491;-85
2022/09/27 10:00:23;;;;;;;1.02;0.30;;;;;;;;;;4977788;28;19905;-86
2022/09/27 10:02:54;;;;;;;0.75;0.40;;;;;;;;;;4977127;28;20069;-83
2022/09/27 10:05:23;;;;;;;0.90;0.40;;;;;;;;;;4979676;28;20030;-80
2022/09/27 10:08:11;;;;;;;0.30;0.20;;;;;;;;;;4976925;28;20030;-81
2022/09/27 10:10:39;;;;;;;1.35;0.32;;;;;;;;;;4976531;28;20113;-81
2022/09/27 10:13:23;;;;;;;3.05;0.20;;;;;;;;;;4994667;28;20080;-82
2022/09/27 10:16:01;;;;;;;0.32;0.30;;;;;;;;;;4976218;28;20076;-82
2022/09/27 10:18:28;;;;;;;0.30;0.20;;;;;;;;;;4978554;28;20042;-84
2022/09/27 10:20:58;;;;;;;0.50;0.20;;;;;;;;;;4977009;28;20033;-85
2022/09/27 10:23:25;;;;;;;0.43;0.20;;;;;;;;;;4976894;28;20034;-85
2022/09/27 10:26:11;;;;;;;0.68;0.30;;;;;;;;;;4993263;28;20703;-82
2022/09/27 10:28:46;;;;;;;0.43;0.22;;;;;;;;;;4977027;28;20189;-81
2022/09/27 10:31:16;;;;;;;1.17;0.40;;;;;;;;;;4978266;28;20034;-82
2022/09/27 10:34:06;;;;;;;0.10;0.10;;;;;;;;;;4972484;28;20029;-81
2022/09/27 10:36:40;;;;;;;0.30;0.30;;;;;;;;;;4992709;28;20077;-81
2022/09/27 10:39:18;;;;;;;0.85;0.35;;;;;;;;;;4993140;28;20037;-81
2022/09/27 10:41:44;;;;;;;1.17;0.30;;;;;;;;;;4992673;28;20030;-82
2022/09/27 10:44:24;;;;;;;0.80;0.40;;;;;;;;;;4992037;28;20074;-83
2022/09/27 10:47:07;;;;;;;0.40;0.10;;;;;;;;;;4977983;28;20117;-83
2022/09/27 10:50:06;;;;;;;0.50;0.38;;;;;;;;;;4991611;28;20042;-83
2022/09/27 10:53:14;;;;;;;0.38;0.17;;;;;;;;;;4992924;28;20045;-83
2022/09/27 10:55:45;;;;;;;1.85;0.63;;;;;;;;;;4995422;28;20037;-83
2022/09/27 10:58:19;;;;;;;2.15;0.50;;;;;;;;;;4995809;28;20117;-83
2022/09/27 11:01:02;;;;;;;1.67;0.80;;;;;;;;;;4996049;28;20037;-83
2022/09/27 11:03:31;;;;;;;;;;;;;;;;;;4996337;28;20038;-82
2022/09/27 11:05:58;;;;;;;0.73;0.60;;;;;;;;;;4996232;28;19910;-82
2022/09/27 11:08:31;;;;;;;0.20;0.20;;;;;;;;;;4996236;28;20041;-83
2022/09/27 11:11:05;;;;;;;1.55;0.13;;;;;;;;;;4995531;28;20038;-82
2022/09/27 11:13:34;;;;;;;0.25;0.25;;;;;;;;;;4995799;28;20025;-82
2022/09/27 11:16:28;;;;;;;0.22;0.10;;;;;;;;;;4995647;28;20037;-82
2022/09/27 11:19:09;;;;;;;1.75;0.13;;;;;;;;;;4996046;28;20036;-82
2022/09/27 11:21:56;;;;;;;0.30;0.30;;;;;;;;;;4979805;28;20118;-83
2022/09/27 11:24:53;;;;;;;0.25;0.20;;;;;;;;;;4996976;28;20030;-82
2022/09/27 11:27:41;;;;;;;0.20;0.20;;;;;;;;;;4996347;28;20030;-81
2022/09/27 11:30:14;;;;;;;0.50;0.13;;;;;;;;;;4996190;28;20030;-82
2022/09/27 11:33:18;;;;;;;0.30;0.30;;;;;;;;;;4996132;28;20137;-80
2022/09/27 11:35:51;;;;;;;0.30;0.20;;;;;;;;;;4995237;28;20491;-82
2022/09/27 11:38:51;;;;;;;0.20;0.20;;;;;;;;;;4995807;28;20072;-82
2022/09/27 11:41:32;;;;;;;2.08;0.30;;;;;;;;;;4995372;28;20034;-83
2022/09/27 11:44:16;;;;;;;0.55;0.20;;;;;;;;;;4994952;28;20035;-82
2022/09/27 11:47:06;;;;;;;0.35;0.20;;;;;;;;;;4995211;28;20536;-83
2022/09/27 11:49:35;;;;;;;0.20;0.20;;;;;;;;;;4978583;28;20105;-83
2022/09/27 11:52:21;;;;;;;0.30;0.30;;;;;;;;;;4995525;28;20124;-83
2022/09/27 11:55:09;;;;;;;0.22;0.20;;;;;;;;;;4994358;28;20490;-84
2022/09/27 11:57:42;;;;;;;0.30;0.28;;;;;;;;;;4994903;28;20034;-83
2022/09/27 12:00:18;;;;;;;0.35;0.30;;;;;;;;;;4995231;28;20037;-83
2022/09/27 12:03:19;;;;;;;0.45;0.40;;;;;;;;;;4994993;28;20085;-82
2022/09/27 12:06:23;;;;;;;0.10;0.10;;;;;;;;;;4978166;28;20037;-83
2022/09/27 12:09:22;;;;;;;0.82;0.30;;;;;;;;;;4995257;28;20129;-84
2022/09/27 12:11:52;;;;;;;0.15;0.10;;;;;;;;;;4994209;28;20034;-83
2022/09/27 12:14:32;;;;;;;3.67;0.25;;;;;;;;;;4994189;28;20022;-83
2022/09/27 12:17:02;;;;;;;0.20;0.20;;;;;;;;;;4994509;28;20033;-83
2022/09/27 12:19:34;;;;;;;0.20;0.20;;;;;;;;;;4978961;28;20383;-84
2022/09/27 12:22:25;;;;;;;1.75;0.20;;;;;;;;;;4994981;28;20022;-84
2022/09/27 12:24:52;;;;;;;0.20;0.10;;;;;;;;;;4994756;28;20034;-83
2022/09/27 12:27:56;;;;;;;0.20;0.20;;;;;;;;;;4993916;28;20042;-83
2022/09/27 12:30:22;;;;;;;0.20;0.20;;;;;;;;;;4977920;28;20037;-83
2022/09/27 12:33:03;;;;;;;0.20;0.20;;;;;;;;;;4994930;28;20027;-82
2022/09/27 12:35:45;;;;;;;0.13;0.13;;;;;;;;;;4994073;28;20059;-82
2022/09/27 12:38:28;;;;;;;0.20;0.20;;;;;;;;;;4994582;28;20062;-82
2022/09/27 12:40:57;;;;;;;1.90;0.30;;;;;;;;;;4994323;28;20399;-82
2022/09/27 12:43:34;;;;;;;0.32;0.20;;;;;;;;;;4979339;28;20046;-82
2022/09/27 12:46:54;;;;;;;0.77;0.30;;;;;;;;;;4995406;28;20038;-83
2022/09/27 12:50:02;;;;;;;2.00;1.13;;;;;;;;;;4994306;28;20395;-82
2022/09/27 12:52:32;;;;;;;1.13;0.60;;;;;;;;;;4994265;28;20026;-81
2022/09/27 12:55:17;;;;;;;4.97;1.30;;;;;;;;;;4993660;28;20089;-82
2022/09/27 12:57:58;;;;;;;1.88;0.40;;;;;;;;;;4994599;28;20116;-82
2022/09/27 13:00:31;;;;;;;0.28;0.22;;;;;;;;;;4994384;28;20030;-82
2022/09/27 13:02:59;;;;;;;1.60;0.30;;;;;;;;;;4995393;28;20466;-81
2022/09/27 13:05:32;;;;;;;1.20;0.25;;;;;;;;;;4996256;28;20069;-84
2022/09/27 13:08:40;;;;;;;0.30;0.30;;;;;;;;;;4996457;28;20076;-84
2022/09/27 13:11:22;;;;;;;0.50;0.30;;;;;;;;;;4995022;28;20138;-84
2022/09/27 13:13:48;;;;;;;0.32;0.32;;;;;;;;;;4997012;28;20018;-84
2022/09/27 13:16:15;;;;;;;0.73;0.40;;;;;;;;;;4995729;28;20026;-83
2022/09/27 13:19:02;;;;;;;0.60;0.30;;;;;;;;;;4996259;28;20026;-84
2022/09/27 13:21:47;;;;;;;0.35;0.28;;;;;;;;;;4996214;28;20034;-84
2022/09/27 13:24:38;;;;;;;2.95;0.40;;;;;;;;;;4994976;28;20034;-84
2022/09/27 13:27:22;;;;;;;1.08;0.43;;;;;;;;;;4996060;28;20061;-84
2022/09/27 13:29:49;;;;;;;1.40;0.55;;;;;;;;;;4995633;28;20041;-84
2022/09/27 13:32:18;;;;;;;1.00;0.32;;;;;;;;;;4979623;28;20036;-85
2022/09/27 13:35:18;;;;;;;0.52;0.30;;;;;;;;;;4996875;28;20030;-84
2022/09/27 13:37:55;;;;;;;0.88;0.50;;;;;;;;;;4996348;28;20117;-84
2022/09/27 13:40:48;;;;;;;0.57;0.30;;;;;;;;;;4995482;28;20034;-84
2022/09/27 13:44:04;;;;;;;0.68;0.40;;;;;;;;;;4996015;28;20116;-84
2022/09/27 13:46:50;;;;;;;2.08;0.35;;;;;;;;;;4979937;28;20399;-85
2022/09/27 13:49:45;;;;;;;1.00;0.40;;;;;;;;;;4964423;28;20049;-84
2022/09/27 13:52:32;;;;;;;0.52;0.32;;;;;;;;;;4979832;28;20037;-84
2022/09/27 13:55:36;;;;;;;0.63;0.40;;;;;;;;;;4984319;28;20046;-84
2022/09/27 13:58:24;;;;;;;0.73;0.50;;;;;;;;;;4984382;28;20482;-84
2022/09/27 14:00:53;;;;;;;2.03;0.50;;;;;;;;;;4968407;28;20129;-84
2022/09/27 14:04:13;;;;;;;1.58;0.50;;;;;;;;;;4986850;28;20018;-84
2022/09/27 14:06:46;;;;;;;2.42;0.40;;;;;;;;;;4910411;29;20437;-83
2022/09/27 14:09:28;;;;;;;4.90;0.60;;;;;;;;;;4976910;28;20038;-84
2022/09/27 14:12:09;;;;;;;0.47;0.38;;;;;;;;;;4985963;28;20486;-84
2022/09/27 14:14:36;;;;;;;1.42;0.60;;;;;;;;;;4988458;28;20030;-84
2022/09/27 14:17:06;;;;;;;2.58;0.88;;;;;;;;;;4985368;28;20018;-84
2022/09/27 14:19:32;;;;;;;0.77;0.60;;;;;;;;;;4986663;28;20077;-84
2022/09/27 14:21:58;;;;;;;2.30;0.75;;;;;;;;;;4996669;28;20467;-84
2022/09/27 14:24:32;;;;;;;1.52;0.57;;;;;;;;;;4977201;28;20037;-84
2022/09/27 14:27:24;;;;;;;0.98;0.40;;;;;;;;;;4997082;28;20050;-84
2022/09/27 14:30:00;;;;;;;3.33;0.70;;;;;;;;;;4998004;28;20039;-83
2022/09/27 14:32:32;;;;;;;0.40;0.40;;;;;;;;;;4999328;28;20062;-84
2022/09/27 14:38:07;;;;;;;1.23;0.55;;;;;;;;;;4998252;28;20027;-83
2022/09/27 14:40:58;;;;;;;3.17;0.50;;;;;;;;;;4998727;28;20030;-82
2022/09/27 14:43:25;;;;;;;1.05;0.60;;;;;;;;;;4999210;28;20042;-83
2022/09/27 14:45:56;;;;;;;2.33;0.77;;;;;;;;;;4998856;28;20072;-83
2022/09/27 14:48:33;;;;;;;4.15;0.63;;;;;;;;;;4996053;28;20046;-84
2022/09/27 14:51:18;;;;;;;3.45;0.60;;;;;;;;;;4998025;28;20041;-83
2022/09/27 14:53:46;;;;;;;2.17;0.75;;;;;;;;;;4999303;28;20030;-83
2022/09/27 14:56:18;;;;;;;3.30;0.85;;;;;;;;;;4997368;28;20034;-83
2022/09/27 14:58:45;;;;;;;1.10;0.60;;;;;;;;;;4998221;28;20034;-84
2022/09/27 15:01:19;;;;;;;1.52;0.63;;;;;;;;;;4999622;28;20038;-85
2022/09/27 15:03:47;;;;;;;1.70;0.60;;;;;;;;;;4997718;28;20065;-84
2022/09/27 15:06:14;;;;;;;4.10;0.82;;;;;;;;;;4998165;28;20022;-82
2022/09/27 15:08:41;;;;;;;1.08;0.63;;;;;;;;;;4997560;28;20455;-83
2022/09/27 15:11:09;;;;;;;1.15;0.65;;;;;;;;;;4999186;28;20038;-85
2022/09/27 15:13:36;;;;;;;2.28;0.60;;;;;;;;;;4997613;28;20027;-84
2022/09/27 15:16:19;;;;;;;2.08;0.50;;;;;;;;;;4999063;28;20026;-83
2022/09/27 15:18:48;;;;;;;1.23;0.63;;;;;;;;;;4997816;28;20038;-82
2022/09/27 15:21:26;;;;;;;2.70;0.80;;;;;;;;;;4999044;28;20114;-83
2022/09/27 15:23:53;;;;;;;1.75;0.70;;;;;;;;;;4998614;28;20362;-83
2022/09/27 15:26:26;;;;;;;0.90;0.60;;;;;;;;;;4996680;28;20089;-83
2022/09/27 15:28:52;;;;;;;1.52;0.60;;;;;;;;;;4998556;28;20109;-83
2022/09/27 15:31:28;;;;;;;1.98;0.60;;;;;;;;;;5000426;28;20027;-84
2022/09/27 15:33:55;;;;;;;1.42;0.70;;;;;;;;;;5001051;28;20532;-85
2022/09/27 15:36:43;;;;;;;3.25;1.50;;;;;;;;;;4996441;28;20018;-83
2022/09/27 15:39:11;;;;;;;3.08;1.33;;;;;;;;;;4998954;28;20085;-84
2022/09/27 15:42:00;;;;;;;5.40;3.00;;;;;;;;;;4999082;28;20671;-83
2022/09/27 15:44:47;;;;;;;1.40;1.05;;;;;;;;;;4997004;28;20039;-84
2022/09/27 15:47:31;;;;;;;1.13;0.70;;;;;;;;;;4998873;28;20113;-83
2022/09/27 15:49:57;;;;;;;1.15;0.65;;;;;;;;;;4997336;28;20038;-84